KMOB

Mobile Regional Airport

Airport
ICAO code
KMOB
Summary
ICAO Region
NAM
ICAO Territory
Location

Mobile, Alabama,

Coordinates
30° 40' 52" N , 88° 14' 41" W
KCC
Airport WX
Cumulonimbus
Metar
KMOB 181556Z 16009KT 7SM BKN015 OVC120 25/21 A3008 RMK AO2 SLP184 T02500206

Description

Civil/Military (USCG) airport serving the city of Mobile and south western Alabama, USA.

Climatology

Humid “subtropical” climate (Köppen climate classification Cfa) - characterized by hot, humid summers and cool winters. Significant amounts of precipitation occur in all seasons in most areas. Winter rainfall (and sometimes snowfall) is associated with large storms that the westerlies steer from west to east. Most summer rainfall occurs during thunderstorms and occasional tropical storms (hurricanes).

Runways

Designator Length Width Surface Rops
18/36 1330 46 ASP Yes/Yes
14/32 2597 46 ASP Yes/Yes

Airport map

Aerial View

SKYbrary Partners:

Safety knowledge contributed by: